TimeEST,TemperatureF,Dew PointF,Humidity,Sea Level PressureIn,VisibilityMPH,Wind Direction,Wind SpeedMPH,Gust SpeedMPH,PrecipitationIn,Events,Conditions,WindDirDegrees,DateUTC
12:54 AM,35.1,24.1,64,30.25,10.0,NW,10.4,-,N/A,,Overcast,320,2013-01-15 05:54:00
1:54 AM,34.0,24.1,67,30.28,10.0,WNW,6.9,-,0.00,Rain,Light Rain,300,2013-01-15 06:54:00
2:54 AM,34.0,23.0,64,30.23,10.0,NE,3.5,-,0.00,,Mostly Cloudy,40,2013-01-15 07:54:00
3:54 AM,34.0,23.0,64,30.23,10.0,NNW,4.6,-,N/A,,Mostly Cloudy,340,2013-01-15 08:54:00
4:54 AM,33.1,23.0,66,30.22,10.0,NNW,5.8,-,N/A,,Partly Cloudy,340,2013-01-15 09:54:00
5:54 AM,32.0,21.9,66,30.22,10.0,North,5.8,-,N/A,,Clear,350,2013-01-15 10:54:00
6:54 AM,32.0,21.9,66,30.27,10.0,NNW,5.8,-,N/A,,Clear,330,2013-01-15 11:54:00
7:54 AM,32.0,21.0,64,30.30,10.0,NNW,6.9,-,N/A,,Clear,340,2013-01-15 12:54:00
8:54 AM,34.0,21.0,59,30.30,10.0,North,8.1,-,N/A,,Clear,10,2013-01-15 13:54:00
9:54 AM,35.1,21.0,57,30.31,10.0,NE,8.1,-,N/A,,Clear,40,2013-01-15 14:54:00
10:54 AM,36.0,21.0,55,30.30,10.0,NE,3.5,-,N/A,,Clear,40,2013-01-15 15:54:00
11:54 AM,36.0,21.0,55,30.27,10.0,Variable,5.8,-,N/A,,Clear,0,2013-01-15 16:54:00
12:54 PM,36.0,21.9,57,30.27,10.0,NW,5.8,-,N/A,,Clear,310,2013-01-15 17:54:00
1:54 PM,36.0,21.0,55,30.26,10.0,WNW,3.5,-,N/A,,Clear,300,2013-01-15 18:54:00
2:54 PM,36.0,21.0,55,30.26,10.0,WNW,4.6,-,N/A,,Clear,290,2013-01-15 19:54:00
3:54 PM,36.0,21.0,55,30.25,10.0,WNW,3.5,-,N/A,,Clear,290,2013-01-15 20:54:00
4:54 PM,34.0,21.9,61,30.27,10.0,West,5.8,-,N/A,,Clear,280,2013-01-15 21:54:00
5:54 PM,33.1,21.9,64,30.26,10.0,West,4.6,-,N/A,,Clear,260,2013-01-15 22:54:00
6:54 PM,32.0,21.9,66,30.28,10.0,NW,5.8,-,N/A,,Clear,310,2013-01-15 23:54:00
7:54 PM,32.0,21.9,66,30.27,10.0,NW,5.8,-,N/A,,Clear,310,2013-01-16 00:54:00
8:54 PM,33.1,19.9,59,30.26,10.0,North,4.6,-,N/A,,Clear,350,2013-01-16 01:54:00
9:54 PM,32.0,19.9,61,30.25,10.0,North,4.6,-,N/A,,Clear,360,2013-01-16 02:54:00
10:54 PM,30.9,21.0,67,30.24,10.0,NE,3.5,-,N/A,,Partly Cloudy,40,2013-01-16 03:54:00
11:54 PM,30.9,21.0,67,30.23,10.0,NE,4.6,-,N/A,,Overcast,40,2013-01-16 04:54:00